createdAt,value
2018-10-09T00:00:47.924Z,1000.93
2018-10-09T00:01:47.874Z,1000.95
2018-10-09T00:02:47.914Z,1000.89
2018-10-09T00:03:47.952Z,1000.85
2018-10-09T00:04:47.990Z,1000.87
2018-10-09T00:05:48.033Z,1000.87
2018-10-09T00:06:48.068Z,1000.90
2018-10-09T00:07:48.108Z,1000.94
2018-10-09T00:08:48.149Z,1000.92
2018-10-09T00:09:48.193Z,1000.99
2018-10-09T00:10:48.224Z,1001.00
2018-10-09T00:11:48.261Z,1001.00
2018-10-09T00:12:48.305Z,1001.02
2018-10-09T00:13:48.340Z,1001.05
2018-10-09T00:14:48.377Z,1001.05
2018-10-09T00:15:48.424Z,1001.05
2018-10-09T00:16:48.463Z,1001.07
2018-10-09T00:17:48.496Z,1001.07
2018-10-09T00:18:48.533Z,1001.08
2018-10-09T00:19:48.624Z,1001.07
2018-10-09T00:20:48.624Z,1001.03
2018-10-09T00:21:48.651Z,1001.05
2018-10-09T00:22:48.699Z,1001.04
2018-10-09T00:23:48.728Z,1001.06
2018-10-09T00:24:48.772Z,1001.05
2018-10-09T00:25:48.807Z,1001.05
2018-10-09T00:26:48.850Z,1001.04
2018-10-09T00:27:48.886Z,1001.00
2018-10-09T00:28:48.924Z,1000.99
2018-10-09T00:29:48.971Z,1001.00
2018-10-09T00:30:49.001Z,1000.99
2018-10-09T00:31:49.039Z,1000.98
2018-10-09T00:32:49.077Z,1000.97
2018-10-09T00:33:49.135Z,1000.96
2018-10-09T00:34:49.158Z,1000.97
2018-10-09T00:35:49.196Z,1000.95
2018-10-09T00:36:49.248Z,1000.91
2018-10-09T00:37:49.273Z,1000.87
2018-10-09T00:38:49.313Z,1000.88
2018-10-09T00:39:49.349Z,1000.84
2018-10-09T00:40:49.390Z,1000.82
2018-10-09T00:41:49.431Z,1000.86
2018-10-09T00:42:49.475Z,1000.85
2018-10-09T00:43:49.506Z,1000.90
2018-10-09T00:44:49.595Z,1000.93
2018-10-09T00:45:49.592Z,1000.92
2018-10-09T00:46:49.623Z,1000.98
2018-10-09T00:47:49.670Z,1000.92
2018-10-09T00:48:49.702Z,1000.93
2018-10-09T00:49:49.740Z,1000.97
2018-10-09T00:50:49.778Z,1000.96
2018-10-09T00:51:49.820Z,1000.92
2018-10-09T00:52:49.856Z,1000.98
2018-10-09T00:53:49.895Z,1000.99
2018-10-09T00:54:49.936Z,1000.98
2018-10-09T00:55:49.973Z,1000.98
2018-10-09T00:56:50.015Z,1001.02
2018-10-09T00:57:50.052Z,1001.00
2018-10-09T00:58:50.090Z,1000.99
2018-10-09T00:59:50.130Z,1001.00
2018-10-09T01:00:50.170Z,1000.99
2018-10-09T01:01:50.209Z,1000.94
2018-10-09T01:02:50.253Z,1000.95
2018-10-09T01:03:50.295Z,1000.94
2018-10-09T01:04:50.324Z,1000.88
2018-10-09T01:05:50.365Z,1000.88
2018-10-09T01:06:50.404Z,1000.84
2018-10-09T01:07:50.444Z,1000.83
2018-10-09T01:08:50.482Z,1000.80
2018-10-09T01:09:50.521Z,1000.78
2018-10-09T01:10:50.559Z,1000.80
2018-10-09T01:11:50.601Z,1000.82
2018-10-09T01:12:50.637Z,1000.81
2018-10-09T01:13:50.677Z,1000.81
2018-10-09T01:14:50.717Z,1000.83
2018-10-09T01:15:50.757Z,1000.82
2018-10-09T01:16:50.793Z,1000.87
2018-10-09T01:17:50.832Z,1000.85
2018-10-09T01:18:50.879Z,1000.88
2018-10-09T01:19:50.918Z,1000.85
2018-10-09T01:20:50.951Z,1000.88
2018-10-09T01:21:51.045Z,1000.83
2018-10-09T01:22:51.029Z,1000.87
2018-10-09T01:23:51.071Z,1000.88
2018-10-09T01:24:51.106Z,1000.85
2018-10-09T01:25:51.146Z,1000.84
2018-10-09T01:26:51.187Z,1000.84
2018-10-09T01:27:51.225Z,1000.86
2018-10-09T01:28:51.314Z,1000.90
2018-10-09T01:29:51.309Z,1000.85
2018-10-09T01:30:51.343Z,1000.84
2018-10-09T01:31:51.381Z,1000.81
2018-10-09T01:32:51.421Z,1000.84
2018-10-09T01:33:51.475Z,1000.85
2018-10-09T01:34:51.499Z,1000.85
2018-10-09T01:35:51.541Z,1000.81
2018-10-09T01:36:51.579Z,1000.83
2018-10-09T01:37:51.623Z,1000.78
2018-10-09T01:38:51.659Z,1000.77
2018-10-09T01:39:51.696Z,1000.79
2018-10-09T01:40:51.734Z,1000.78
2018-10-09T01:41:51.776Z,1000.72
2018-10-09T01:42:51.812Z,1000.73
2018-10-09T01:43:51.850Z,1000.72
2018-10-09T01:44:51.892Z,1000.73
2018-10-09T01:45:51.930Z,1000.73
2018-10-09T01:46:51.969Z,1000.72
2018-10-09T01:47:52.010Z,1000.70
2018-10-09T01:48:52.049Z,1000.70
2018-10-09T01:49:52.087Z,1000.66
2018-10-09T01:50:52.129Z,1000.64
2018-10-09T01:51:52.165Z,1000.68
2018-10-09T01:52:52.205Z,1000.68
2018-10-09T01:53:52.247Z,1000.61
2018-10-09T01:54:52.286Z,1000.62
2018-10-09T01:55:52.324Z,1000.61
2018-10-09T01:56:52.364Z,1000.63
2018-10-09T01:57:52.401Z,1000.61
2018-10-09T01:58:52.452Z,1000.64
2018-10-09T01:59:52.481Z,1000.65
2018-10-09T02:00:52.521Z,1000.64
2018-10-09T02:01:52.561Z,1000.65
2018-10-09T02:02:52.599Z,1000.64
2018-10-09T02:03:52.637Z,1000.67
2018-10-09T02:04:52.678Z,1000.61
2018-10-09T02:05:52.717Z,1000.61
2018-10-09T02:06:52.755Z,1000.58
2018-10-09T02:07:52.795Z,1000.57
2018-10-09T02:08:52.837Z,1000.56
2018-10-09T02:09:52.873Z,1000.56
2018-10-09T02:10:52.915Z,1000.52
2018-10-09T02:11:52.951Z,1000.53
2018-10-09T02:12:52.992Z,1000.56
2018-10-09T02:13:53.031Z,1000.54
2018-10-09T02:14:53.068Z,1000.57
2018-10-09T02:15:53.108Z,1000.56
2018-10-09T02:16:53.149Z,1000.57
2018-10-09T02:17:53.187Z,1000.53
2018-10-09T02:18:53.227Z,1000.50
2018-10-09T02:19:53.266Z,1000.54
2018-10-09T02:20:53.305Z,1000.58
2018-10-09T02:21:53.344Z,1000.60
2018-10-09T02:22:53.383Z,1000.63
2018-10-09T02:23:53.423Z,1000.59
2018-10-09T02:24:53.463Z,1000.65
2018-10-09T02:25:53.503Z,1000.61
2018-10-09T02:26:53.540Z,1000.63
2018-10-09T02:27:53.581Z,1000.68
2018-10-09T02:28:53.622Z,1000.62
2018-10-09T02:29:53.660Z,1000.65
2018-10-09T02:30:53.697Z,1000.62
2018-10-09T02:31:53.738Z,1000.65
2018-10-09T02:32:53.777Z,1000.65
2018-10-09T02:33:53.817Z,1000.63
2018-10-09T02:34:53.856Z,1000.60
2018-10-09T02:35:53.897Z,1000.61
2018-10-09T02:36:53.935Z,1000.61
2018-10-09T02:37:53.978Z,1000.60
2018-10-09T02:38:54.015Z,1000.61
2018-10-09T02:39:54.054Z,1000.65
2018-10-09T02:40:54.092Z,1000.60
2018-10-09T02:41:54.131Z,1000.67
2018-10-09T02:42:54.169Z,1000.66
2018-10-09T02:43:54.209Z,1000.65
2018-10-09T02:44:54.249Z,1000.70
2018-10-09T02:45:54.288Z,1000.70
2018-10-09T02:46:54.327Z,1000.63
2018-10-09T02:47:54.366Z,1000.66
2018-10-09T02:48:54.406Z,1000.66
2018-10-09T02:49:54.445Z,1000.66
2018-10-09T02:50:54.483Z,1000.63
2018-10-09T02:51:54.525Z,1000.68
2018-10-09T02:52:54.563Z,1000.71
2018-10-09T02:53:54.603Z,1000.73
2018-10-09T02:54:54.641Z,1000.72
2018-10-09T02:55:54.682Z,1000.76
2018-10-09T02:56:54.720Z,1000.77
2018-10-09T02:57:54.761Z,1000.76
2018-10-09T02:58:54.831Z,1000.76
2018-10-09T02:59:54.839Z,1000.76
2018-10-09T03:00:54.877Z,1000.73
2018-10-09T03:01:54.918Z,1000.76
2018-10-09T03:02:54.956Z,1000.77
2018-10-09T03:03:54.999Z,1000.75
2018-10-09T03:04:55.036Z,1000.74
2018-10-09T03:05:55.076Z,1000.70
2018-10-09T03:06:55.115Z,1000.76
2018-10-09T03:07:55.155Z,1000.75
2018-10-09T03:08:55.202Z,1000.74
2018-10-09T03:09:55.233Z,1000.76
2018-10-09T03:10:55.277Z,1000.74
2018-10-09T03:11:55.314Z,1000.77
2018-10-09T03:12:55.353Z,1000.73
2018-10-09T03:13:55.393Z,1000.79
2018-10-09T03:14:55.441Z,1000.79
2018-10-09T03:15:55.513Z,1000.75
2018-10-09T03:16:55.508Z,1000.78
2018-10-09T03:17:55.550Z,1000.80
2018-10-09T03:18:55.589Z,1000.76
2018-10-09T03:19:55.627Z,1000.78
2018-10-09T03:20:55.667Z,1000.73
2018-10-09T03:21:55.711Z,1000.74
2018-10-09T03:22:55.746Z,1000.73
2018-10-09T03:23:55.786Z,1000.70
2018-10-09T03:24:55.825Z,1000.72
2018-10-09T03:25:55.866Z,1000.72
2018-10-09T03:26:55.904Z,1000.75
2018-10-09T03:27:55.946Z,1000.77
2018-10-09T03:28:55.985Z,1000.80
2018-10-09T03:29:56.027Z,1000.80
2018-10-09T03:30:56.063Z,1000.82
2018-10-09T03:31:56.102Z,1000.79
2018-10-09T03:32:56.142Z,1000.82
2018-10-09T03:33:56.183Z,1000.79
2018-10-09T03:34:56.220Z,1000.85
2018-10-09T03:35:56.263Z,1000.83
2018-10-09T03:36:56.302Z,1000.84
2018-10-09T03:37:56.344Z,1000.86
2018-10-09T03:38:56.378Z,1000.87
2018-10-09T03:39:56.423Z,1000.91
2018-10-09T03:40:56.474Z,1000.91
2018-10-09T03:41:56.498Z,1000.91
2018-10-09T03:42:56.538Z,1000.85
2018-10-09T03:43:56.580Z,1000.85
2018-10-09T03:44:56.628Z,1000.85
2018-10-09T03:45:56.656Z,1000.81
2018-10-09T03:46:56.694Z,1000.76
2018-10-09T03:47:56.741Z,1000.75
2018-10-09T03:48:56.775Z,1000.69
2018-10-09T03:49:56.816Z,1000.66
2018-10-09T03:50:56.852Z,1000.67
2018-10-09T03:51:56.894Z,1000.62
2018-10-09T03:52:56.932Z,1000.59
2018-10-09T03:53:56.974Z,1000.59
2018-10-09T03:54:57.013Z,1000.60
2018-10-09T03:55:57.052Z,1000.62
2018-10-09T03:56:57.091Z,1000.64
2018-10-09T03:57:57.132Z,1000.67
2018-10-09T03:58:57.171Z,1000.64
2018-10-09T03:59:57.214Z,1000.65
2018-10-09T04:00:57.251Z,1000.65
2018-10-09T04:01:57.290Z,1000.66
2018-10-09T04:02:57.329Z,1000.66
2018-10-09T04:03:57.370Z,1000.63
2018-10-09T04:04:57.410Z,1000.62
2018-10-09T04:05:57.448Z,1000.63
2018-10-09T04:06:57.488Z,1000.64
2018-10-09T04:07:57.539Z,1000.63
2018-10-09T04:08:57.575Z,1000.62
2018-10-09T04:09:57.661Z,1000.62
2018-10-09T04:10:57.647Z,1000.62
2018-10-09T04:11:57.686Z,1000.63
2018-10-09T04:12:57.727Z,1000.62
2018-10-09T04:13:57.771Z,1000.62
2018-10-09T04:14:57.805Z,1000.63
2018-10-09T04:15:57.844Z,1000.56
2018-10-09T04:16:57.884Z,1000.59
2018-10-09T04:17:57.924Z,1000.60
2018-10-09T04:18:57.970Z,1000.56
2018-10-09T04:19:58.001Z,1000.57
2018-10-09T04:20:58.041Z,1000.53
2018-10-09T04:21:58.080Z,1000.50
2018-10-09T04:22:58.119Z,1000.50
2018-10-09T04:23:58.168Z,1000.49
2018-10-09T04:24:58.202Z,1000.51
2018-10-09T04:25:58.238Z,1000.49
2018-10-09T04:26:58.288Z,1000.50
2018-10-09T04:27:58.319Z,1000.47
2018-10-09T04:28:58.357Z,1000.47
2018-10-09T04:29:58.399Z,1000.49
2018-10-09T04:30:58.438Z,1000.47
2018-10-09T04:31:58.477Z,1000.48
2018-10-09T04:32:58.516Z,1000.43
2018-10-09T04:33:58.555Z,1000.45
2018-10-09T04:34:58.594Z,1000.43
2018-10-09T04:35:58.635Z,1000.44
2018-10-09T04:36:58.674Z,1000.44
2018-10-09T04:37:58.715Z,1000.45
2018-10-09T04:38:58.753Z,1000.42
2018-10-09T04:39:58.792Z,1000.43
2018-10-09T04:40:58.830Z,1000.43
2018-10-09T04:41:58.872Z,1000.44
2018-10-09T04:42:58.920Z,1000.45
2018-10-09T04:43:58.949Z,1000.48
2018-10-09T04:44:58.990Z,1000.48
2018-10-09T04:45:59.036Z,1000.48
2018-10-09T04:46:59.068Z,1000.49
2018-10-09T04:47:59.108Z,1000.51
2018-10-09T04:48:59.147Z,1000.52
2018-10-09T04:49:59.187Z,1000.49
2018-10-09T04:50:59.226Z,1000.46
2018-10-09T04:51:59.265Z,1000.46
2018-10-09T04:52:59.368Z,1000.43
2018-10-09T04:53:59.345Z,1000.45
2018-10-09T04:54:59.385Z,1000.46
2018-10-09T04:55:59.425Z,1000.40
2018-10-09T04:56:59.464Z,1000.43
2018-10-09T04:57:59.505Z,1000.41
2018-10-09T04:58:59.541Z,1000.45
2018-10-09T04:59:59.580Z,1000.43
2018-10-09T05:00:59.623Z,1000.43
2018-10-09T05:01:59.661Z,1000.46
2018-10-09T05:02:59.701Z,1000.46
2018-10-09T05:03:59.739Z,1000.47
2018-10-09T05:04:59.780Z,1000.46
2018-10-09T05:05:59.821Z,1000.48
2018-10-09T05:06:59.860Z,1000.49
2018-10-09T05:07:59.898Z,1000.49
2018-10-09T05:08:59.940Z,1000.49
2018-10-09T05:09:59.979Z,1000.48
2018-10-09T05:11:00.017Z,1000.51
2018-10-09T05:12:00.058Z,1000.51
2018-10-09T05:13:00.099Z,1000.53
2018-10-09T05:14:00.139Z,1000.54
2018-10-09T05:15:00.176Z,1000.52
2018-10-09T05:16:00.215Z,1000.47
2018-10-09T05:17:00.255Z,1000.49
2018-10-09T05:18:00.295Z,1000.46
2018-10-09T05:19:00.335Z,1000.47
2018-10-09T05:20:00.372Z,1000.47
2018-10-09T05:21:00.413Z,1000.52
2018-10-09T05:22:00.461Z,1000.56
2018-10-09T05:23:00.493Z,1000.58
2018-10-09T05:24:00.533Z,1000.61
2018-10-09T05:25:00.571Z,1000.61
2018-10-09T05:26:00.610Z,1000.62
2018-10-09T05:27:00.650Z,1000.65
2018-10-09T05:28:00.689Z,1000.65
2018-10-09T05:29:00.731Z,1000.63
2018-10-09T05:30:00.819Z,1000.60
2018-10-09T05:31:00.817Z,1000.63
2018-10-09T05:32:00.849Z,1000.64
2018-10-09T05:33:00.889Z,1000.63
2018-10-09T05:34:00.927Z,1000.69
2018-10-09T05:35:00.968Z,1000.70
2018-10-09T05:36:01.007Z,1000.66
2018-10-09T05:37:01.047Z,1000.72
2018-10-09T05:38:01.089Z,1000.75
2018-10-09T05:39:01.127Z,1000.76
2018-10-09T05:40:01.166Z,1000.80
2018-10-09T05:41:01.204Z,1000.83
2018-10-09T05:42:01.245Z,1000.86
2018-10-09T05:43:01.284Z,1000.84
2018-10-09T05:44:01.325Z,1000.87
2018-10-09T05:45:01.377Z,1000.87
2018-10-09T05:46:01.402Z,1000.85
2018-10-09T05:47:01.442Z,1000.85
2018-10-09T05:48:01.481Z,1000.82
2018-10-09T05:49:01.520Z,1000.85
2018-10-09T05:50:01.561Z,1000.85
2018-10-09T05:51:01.650Z,1000.89
2018-10-09T05:52:01.640Z,1000.92
2018-10-09T05:53:01.680Z,1000.94
2018-10-09T05:54:01.720Z,1000.95
2018-10-09T05:55:01.759Z,1000.93
2018-10-09T05:56:01.800Z,1000.96
2018-10-09T05:57:01.839Z,1000.99
2018-10-09T05:58:01.922Z,1000.97
2018-10-09T05:59:01.918Z,1000.94
2018-10-09T06:00:01.960Z,1000.96
2018-10-09T06:01:02.006Z,1001.02
2018-10-09T06:02:02.036Z,1000.97
2018-10-09T06:03:02.077Z,1001.04
2018-10-09T06:04:02.127Z,1001.01
2018-10-09T06:05:02.156Z,1001.00
2018-10-09T06:06:02.310Z,1001.04
2018-10-09T06:07:02.234Z,1001.01
2018-10-09T06:08:02.275Z,1001.02
2018-10-09T06:09:02.316Z,1001.04
2018-10-09T06:10:02.354Z,1001.04
2018-10-09T06:11:02.393Z,1001.05
2018-10-09T06:12:02.433Z,1001.03
2018-10-09T06:13:02.483Z,1001.04
2018-10-09T06:14:02.523Z,1001.07
2018-10-09T06:15:02.560Z,1001.07
2018-10-09T06:16:02.720Z,1001.11
2018-10-09T06:17:02.638Z,1001.09
2018-10-09T06:18:02.671Z,1001.10
2018-10-09T06:19:02.715Z,1001.10
2018-10-09T06:20:02.754Z,1001.10
2018-10-09T06:21:02.793Z,1001.10
2018-10-09T06:22:02.865Z,1001.13
2018-10-09T06:23:02.870Z,1001.14
2018-10-09T06:24:02.910Z,1001.16
2018-10-09T06:25:02.951Z,1001.17
2018-10-09T06:26:02.994Z,1001.22
2018-10-09T06:27:03.030Z,1001.17
2018-10-09T06:28:03.183Z,1001.18
2018-10-09T06:29:03.112Z,1001.20
2018-10-09T06:30:03.151Z,1001.17
2018-10-09T06:31:03.192Z,1001.17
2018-10-09T06:32:03.238Z,1001.21
2018-10-09T06:33:03.271Z,1001.22
2018-10-09T06:34:03.388Z,1001.25
2018-10-09T06:35:03.361Z,1001.25
2018-10-09T06:36:03.389Z,1001.27
2018-10-09T06:37:03.445Z,1001.30
2018-10-09T06:38:03.471Z,1001.30
2018-10-09T06:39:03.519Z,1001.27
2018-10-09T06:40:03.551Z,1001.32
2018-10-09T06:41:03.592Z,1001.32
2018-10-09T06:42:03.634Z,1001.33
2018-10-09T06:43:03.669Z,1001.32
2018-10-09T06:44:03.718Z,1001.33
2018-10-09T06:45:03.749Z,1001.34
2018-10-09T06:46:03.791Z,1001.34
2018-10-09T06:47:03.829Z,1001.40
2018-10-09T06:48:03.873Z,1001.43
2018-10-09T06:49:03.909Z,1001.46
2018-10-09T06:50:03.951Z,1001.48
2018-10-09T06:51:03.987Z,1001.47
2018-10-09T06:52:04.029Z,1001.55
2018-10-09T06:53:04.070Z,1001.59
2018-10-09T06:54:04.345Z,1001.60
2018-10-09T06:55:04.146Z,1001.62
2018-10-09T06:56:04.189Z,1001.64
2018-10-09T06:57:04.230Z,1001.67
2018-10-09T06:58:04.276Z,1001.70
2018-10-09T06:59:04.307Z,1001.74
2018-10-09T07:00:04.437Z,1001.78
2018-10-09T07:01:04.390Z,1001.75
2018-10-09T07:02:04.430Z,1001.80
2018-10-09T07:03:04.468Z,1001.77
2018-10-09T07:04:04.507Z,1001.77
2018-10-09T07:05:04.548Z,1001.76
2018-10-09T07:06:04.591Z,1001.81
2018-10-09T07:07:04.630Z,1001.80
2018-10-09T07:08:04.669Z,1001.83
2018-10-09T07:09:04.711Z,1001.84
2018-10-09T07:10:04.750Z,1001.89
2018-10-09T07:11:04.893Z,1001.85
2018-10-09T07:12:04.838Z,1001.94
2018-10-09T07:13:04.871Z,1001.92
2018-10-09T07:14:04.919Z,1001.92
2018-10-09T07:15:04.951Z,1001.91
2018-10-09T07:16:04.992Z,1001.94
2018-10-09T07:17:05.112Z,1001.90
2018-10-09T07:18:05.073Z,1001.90
2018-10-09T07:19:05.113Z,1001.85
2018-10-09T07:20:05.153Z,1001.84
2018-10-09T07:21:05.193Z,1001.84
2018-10-09T07:22:05.235Z,1001.86
2018-10-09T07:23:05.276Z,1001.85
2018-10-09T07:24:05.316Z,1001.92
2018-10-09T07:25:05.355Z,1001.94
2018-10-09T07:26:05.396Z,1001.97
2018-10-09T07:27:05.438Z,1001.94
2018-10-09T07:28:05.487Z,1001.99
2018-10-09T07:29:05.527Z,1001.97
2018-10-09T07:30:05.558Z,1001.97
2018-10-09T07:31:05.599Z,1001.96
2018-10-09T07:32:05.642Z,1001.96
2018-10-09T07:33:05.681Z,1001.95
2018-10-09T07:34:05.722Z,1001.98
2018-10-09T07:35:05.763Z,1001.97
2018-10-09T07:36:05.802Z,1001.99
2018-10-09T07:37:05.846Z,1002.02
2018-10-09T07:38:05.886Z,1002.01
2018-10-09T07:39:05.924Z,1002.02
2018-10-09T07:40:05.965Z,1002.02
2018-10-09T07:41:06.013Z,1002.07
2018-10-09T07:42:06.049Z,1002.11
2018-10-09T07:43:06.087Z,1002.12
2018-10-09T07:44:06.276Z,1002.09
2018-10-09T07:45:06.171Z,1002.14
2018-10-09T07:46:06.262Z,1002.17
2018-10-09T07:47:06.259Z,1002.15
2018-10-09T07:48:06.291Z,1002.17
2018-10-09T07:49:06.335Z,1002.13
2018-10-09T07:50:06.375Z,1002.16
2018-10-09T07:51:06.421Z,1002.13
2018-10-09T07:52:06.455Z,1002.12
2018-10-09T07:53:06.496Z,1002.12
2018-10-09T07:54:06.538Z,1002.10
2018-10-09T07:55:06.584Z,1002.12
2018-10-09T07:56:06.621Z,1002.14
2018-10-09T07:57:06.662Z,1002.14
2018-10-09T07:58:06.702Z,1002.15
2018-10-09T07:59:06.741Z,1002.11
2018-10-09T08:00:06.782Z,1002.13
2018-10-09T08:01:06.825Z,1002.16
2018-10-09T08:02:06.865Z,1002.14
2018-10-09T08:03:06.914Z,1002.15
2018-10-09T08:04:06.947Z,1002.17
2018-10-09T08:05:06.988Z,1002.16
2018-10-09T08:06:07.034Z,1002.20
2018-10-09T08:07:07.072Z,1002.18
2018-10-09T08:08:07.112Z,1002.20
2018-10-09T08:09:07.154Z,1002.22
2018-10-09T08:10:07.194Z,1002.21
2018-10-09T08:11:07.244Z,1002.22
2018-10-09T08:12:07.276Z,1002.24
2018-10-09T08:13:07.318Z,1002.22
2018-10-09T08:14:07.361Z,1002.22
2018-10-09T08:15:07.416Z,1002.19
2018-10-09T08:16:07.449Z,1002.23
2018-10-09T08:17:07.486Z,1002.24
2018-10-09T08:18:07.525Z,1002.22
2018-10-09T08:19:07.564Z,1002.28
2018-10-09T08:20:07.606Z,1002.25
2018-10-09T08:21:07.656Z,1002.26
2018-10-09T08:22:07.689Z,1002.30
2018-10-09T08:23:07.730Z,1002.25
2018-10-09T08:24:07.771Z,1002.25
2018-10-09T08:25:07.820Z,1002.25
2018-10-09T08:26:07.853Z,1002.26
2018-10-09T08:27:07.904Z,1002.23
2018-10-09T08:28:07.982Z,1002.26
2018-10-09T08:29:07.977Z,1002.25
2018-10-09T08:30:08.020Z,1002.26
2018-10-09T08:31:08.061Z,1002.28
2018-10-09T08:32:08.130Z,1002.26
2018-10-09T08:33:08.149Z,1002.28
2018-10-09T08:34:08.183Z,1002.28
2018-10-09T08:35:08.224Z,1002.30
2018-10-09T08:36:08.265Z,1002.32
2018-10-09T08:37:08.309Z,1002.38
2018-10-09T08:38:08.352Z,1002.37
2018-10-09T08:39:08.396Z,1002.40
2018-10-09T08:40:08.485Z,1002.43
2018-10-09T08:41:08.479Z,1002.42
2018-10-09T08:42:08.511Z,1002.44
2018-10-09T08:43:08.555Z,1002.41
2018-10-09T08:44:08.605Z,1002.43
2018-10-09T08:45:08.636Z,1002.42
2018-10-09T08:46:08.737Z,1002.44
2018-10-09T08:47:08.725Z,1002.44
2018-10-09T08:48:08.765Z,1002.48
2018-10-09T08:49:08.806Z,1002.50
2018-10-09T08:50:08.850Z,1002.53
2018-10-09T08:51:08.883Z,1002.52
2018-10-09T08:52:09.104Z,1002.56
2018-10-09T08:53:08.966Z,1002.55
2018-10-09T08:54:09.008Z,1002.54
2018-10-09T08:55:09.049Z,1002.55
2018-10-09T08:56:09.091Z,1002.60
2018-10-09T08:57:09.134Z,1002.60
2018-10-09T08:58:09.185Z,1002.60
2018-10-09T08:59:09.217Z,1002.57
2018-10-09T09:00:09.259Z,1002.55
2018-10-09T09:01:09.300Z,1002.56
2018-10-09T09:02:09.344Z,1002.55
2018-10-09T09:03:09.387Z,1002.59
2018-10-09T09:04:09.428Z,1002.56
2018-10-09T09:05:09.471Z,1002.60
2018-10-09T09:06:09.511Z,1002.64
2018-10-09T09:07:09.552Z,1002.64
2018-10-09T09:08:09.595Z,1002.63
2018-10-09T09:09:09.651Z,1002.64
2018-10-09T09:10:09.680Z,1002.67
2018-10-09T09:11:09.725Z,1002.66
2018-10-09T09:12:09.774Z,1002.65
2018-10-09T09:13:09.813Z,1002.66
2018-10-09T09:14:09.989Z,1002.67
2018-10-09T09:15:09.892Z,1002.65
2018-10-09T09:16:09.933Z,1002.65
2018-10-09T09:17:09.974Z,1002.64
2018-10-09T09:18:10.017Z,1002.61
2018-10-09T09:19:10.059Z,1002.60
2018-10-09T09:20:10.109Z,1002.60
2018-10-09T09:21:10.169Z,1002.62
2018-10-09T09:22:10.185Z,1002.59
2018-10-09T09:23:10.228Z,1002.59
2018-10-09T09:24:10.272Z,1002.59
2018-10-09T09:25:10.313Z,1002.56
2018-10-09T09:26:10.382Z,1002.55
2018-10-09T09:27:10.566Z,1002.50
2018-10-09T09:28:10.439Z,1002.52
2018-10-09T09:29:10.484Z,1002.46
2018-10-09T09:30:10.525Z,1002.44
2018-10-09T09:31:10.566Z,1002.44
2018-10-09T09:32:10.609Z,1002.43
2018-10-09T09:33:10.696Z,1002.45
2018-10-09T09:34:10.698Z,1002.48
2018-10-09T09:35:10.741Z,1002.46
2018-10-09T09:36:10.778Z,1002.47
2018-10-09T09:37:10.820Z,1002.49
2018-10-09T09:38:10.916Z,1002.50
2018-10-09T09:39:10.989Z,1002.47
2018-10-09T09:40:10.948Z,1002.46
2018-10-09T09:41:11.010Z,1002.48
2018-10-09T09:42:11.039Z,1002.49
2018-10-09T09:43:11.075Z,1002.47
2018-10-09T09:44:11.116Z,1002.45
2018-10-09T09:45:11.157Z,1002.49
2018-10-09T09:46:11.223Z,1002.46
2018-10-09T09:47:11.240Z,1002.49
2018-10-09T09:48:11.283Z,1002.48
2018-10-09T09:49:11.330Z,1002.49
2018-10-09T09:50:11.368Z,1002.52
2018-10-09T09:51:11.417Z,1002.50
2018-10-09T09:52:11.495Z,1002.51
2018-10-09T09:53:11.493Z,1002.49
2018-10-09T09:54:11.536Z,1002.51
2018-10-09T09:55:11.578Z,1002.50
2018-10-09T09:56:11.620Z,1002.54
2018-10-09T09:57:11.662Z,1002.54
2018-10-09T09:58:11.854Z,1002.54
2018-10-09T09:59:11.953Z,1002.56
2018-10-09T10:00:11.788Z,1002.53
2018-10-09T10:01:11.829Z,1002.49
2018-10-09T10:02:11.874Z,1002.49
2018-10-09T10:03:11.926Z,1002.49
2018-10-09T10:04:11.959Z,1002.45
2018-10-09T10:05:12.003Z,1002.46
2018-10-09T10:06:12.042Z,1002.44
2018-10-09T10:07:12.081Z,1002.44
2018-10-09T10:08:12.132Z,1002.45
2018-10-09T10:09:12.175Z,1002.51
2018-10-09T10:10:12.208Z,1002.49
2018-10-09T10:11:12.249Z,1002.48
2018-10-09T10:12:12.293Z,1002.44
2018-10-09T10:13:12.334Z,1002.48
2018-10-09T10:14:12.375Z,1002.49
2018-10-09T10:15:12.416Z,1002.48
2018-10-09T10:16:12.459Z,1002.49
2018-10-09T10:17:12.501Z,1002.47
2018-10-09T10:18:12.559Z,1002.50
2018-10-09T10:19:12.583Z,1002.51
2018-10-09T10:20:12.636Z,1002.45
2018-10-09T10:21:12.687Z,1002.41
2018-10-09T10:22:12.712Z,1002.41
2018-10-09T10:23:12.755Z,1002.38
2018-10-09T10:24:12.796Z,1002.39
2018-10-09T10:25:12.838Z,1002.41
2018-10-09T10:26:12.880Z,1002.39
2018-10-09T10:27:12.923Z,1002.35
2018-10-09T10:28:12.964Z,1002.34
2018-10-09T10:29:13.081Z,1002.28
2018-10-09T10:30:13.057Z,1002.27
2018-10-09T10:31:13.091Z,1002.25
2018-10-09T10:32:13.137Z,1002.18
2018-10-09T10:33:13.180Z,1002.17
2018-10-09T10:34:13.222Z,1002.15
2018-10-09T10:35:13.263Z,1002.11
2018-10-09T10:36:13.304Z,1002.09
2018-10-09T10:37:13.363Z,1002.10
2018-10-09T10:38:13.388Z,1002.06
2018-10-09T10:39:13.433Z,1002.08
2018-10-09T10:40:13.472Z,1002.11
2018-10-09T10:41:13.513Z,1002.13
2018-10-09T10:42:13.582Z,1002.12
2018-10-09T10:43:13.597Z,1002.07
2018-10-09T10:44:13.740Z,1002.04
2018-10-09T10:45:13.692Z,1002.06
2018-10-09T10:46:13.734Z,1002.09
2018-10-09T10:47:13.768Z,1002.04
2018-10-09T10:48:13.811Z,1002.04
2018-10-09T10:49:13.876Z,1002.01
2018-10-09T10:50:13.897Z,1002.00
2018-10-09T10:51:13.946Z,1001.97
2018-10-09T10:52:13.988Z,1001.94
2018-10-09T10:53:14.029Z,1001.98
2018-10-09T10:54:14.066Z,1001.98
2018-10-09T10:55:14.109Z,1002.00
2018-10-09T10:56:14.168Z,1001.98
2018-10-09T10:57:14.194Z,1002.05
2018-10-09T10:58:14.237Z,1002.05
2018-10-09T10:59:14.276Z,1002.04
2018-10-09T11:00:14.321Z,1002.07
2018-10-09T11:01:14.396Z,1002.08
2018-10-09T11:02:14.407Z,1002.12
2018-10-09T11:03:14.447Z,1002.14
2018-10-09T11:04:14.499Z,1002.15
2018-10-09T11:05:14.533Z,1002.13
2018-10-09T11:06:14.586Z,1002.12
2018-10-09T11:07:14.618Z,1002.13
2018-10-09T11:08:14.681Z,1002.12
2018-10-09T11:09:14.711Z,1002.09
2018-10-09T11:10:14.750Z,1002.04
2018-10-09T11:11:14.787Z,1002.03
2018-10-09T11:12:14.833Z,1002.01
2018-10-09T11:13:14.872Z,1001.96
2018-10-09T11:14:14.917Z,1001.99
2018-10-09T11:15:14.958Z,1001.94
2018-10-09T11:16:15.008Z,1001.97
2018-10-09T11:17:15.046Z,1001.93
2018-10-09T11:18:15.090Z,1001.89
2018-10-09T11:19:15.129Z,1001.91
2018-10-09T11:20:15.175Z,1001.90
2018-10-09T11:21:15.279Z,1001.95
2018-10-09T11:22:15.257Z,1001.95
2018-10-09T11:23:15.299Z,1001.93
2018-10-09T11:24:15.351Z,1001.97
2018-10-09T11:25:15.402Z,1001.96
2018-10-09T11:26:15.429Z,1001.89
2018-10-09T11:27:15.472Z,1001.86
2018-10-09T11:28:15.519Z,1001.89
2018-10-09T11:29:15.558Z,1001.85
2018-10-09T11:30:15.601Z,1001.85
2018-10-09T11:31:15.644Z,1001.82
2018-10-09T11:32:15.688Z,1001.80
2018-10-09T11:33:15.729Z,1001.78
2018-10-09T11:34:15.773Z,1001.77
2018-10-09T11:35:15.816Z,1001.76
2018-10-09T11:36:15.857Z,1001.78
2018-10-09T11:37:15.900Z,1001.75
2018-10-09T11:38:15.945Z,1001.75
2018-10-09T11:39:15.987Z,1001.72
2018-10-09T11:40:16.030Z,1001.74
2018-10-09T11:41:16.073Z,1001.70
2018-10-09T11:42:16.115Z,1001.71
2018-10-09T11:43:16.165Z,1001.65
2018-10-09T11:44:16.201Z,1001.66
2018-10-09T11:45:16.253Z,1001.67
2018-10-09T11:46:16.289Z,1001.65
2018-10-09T11:47:16.330Z,1001.65
2018-10-09T11:48:16.380Z,1001.60
2018-10-09T11:49:16.424Z,1001.58
2018-10-09T11:50:16.469Z,1001.56
2018-10-09T11:51:16.503Z,1001.54
2018-10-09T11:52:16.547Z,1001.51
2018-10-09T11:53:16.590Z,1001.46
2018-10-09T11:54:16.632Z,1001.41
2018-10-09T11:55:16.676Z,1001.37
2018-10-09T11:56:16.720Z,1001.33
2018-10-09T11:57:16.765Z,1001.34
2018-10-09T11:58:16.806Z,1001.32
2018-10-09T11:59:16.848Z,1001.30
2018-10-09T12:00:16.899Z,1001.28
2018-10-09T12:01:16.936Z,1001.33
2018-10-09T12:02:16.981Z,1001.36
2018-10-09T12:03:17.019Z,1001.29
2018-10-09T12:04:17.064Z,1001.34
2018-10-09T12:05:17.108Z,1001.32
2018-10-09T12:06:17.158Z,1001.32